KBYH/BYH METAR and TAF weather

Enter ICAO airport designator
Station Type Date Time Source
KBYH METAR 2019/04/18 18:59 UTC NOAA

KBYH 181859Z 22005KT 8SM -RA SCT007 BKN016 OVC090 18/17 A2971


Station Type Date Time Source
KBYH Decoded METAR 2019/04/18 18:59 UTC NOAA

Eaker Air Force Base, AR, United States (KBYH) 35-58N 089-57W
Apr 18, 2019 - 02:59 PM EDT / 2019.04.18 1859 UTC
Wind: from the SW (220 degrees) at 6 MPH (5 KT):0
Visibility: 8 mile(s):0
Sky conditions: overcast
Weather: light rain
Temperature: 64 F (18 C)
Dew Point: 62 F (17 C)
Relative Humidity: 93%
Pressure (altimeter): 29.71 in. Hg (1006 hPa)
ob: KBYH 181859Z 22005KT 8SM -RA SCT007 BKN016 OVC090 18/17 A2971
cycle: 19

Station Type Date Time Source
KBYH TAF UTC NOAA

Error!

Example: see airport list